createdAt,value
2023-04-20T00:00:36.284Z,2.22
2023-04-20T00:02:41.784Z,3.17
2023-04-20T00:04:43.784Z,2.50
2023-04-20T00:06:49.426Z,2.83
2023-04-20T00:09:09.673Z,3.72
2023-04-20T00:11:11.091Z,2.83
2023-04-20T00:13:15.498Z,3.05
2023-04-20T00:15:20.067Z,2.97
2023-04-20T00:17:24.337Z,3.00
2023-04-20T00:19:28.290Z,3.45
2023-04-20T00:21:32.609Z,3.35
2023-04-20T00:23:34.290Z,4.05
2023-04-20T00:25:35.753Z,2.60
2023-04-20T00:27:40.044Z,3.63
2023-04-20T00:29:44.517Z,2.80
2023-04-20T00:31:46.032Z,4.28
2023-04-20T00:33:50.358Z,2.70
2023-04-20T00:35:51.798Z,2.65
2023-04-20T00:37:55.999Z,2.72
2023-04-20T00:39:57.772Z,3.13
2023-04-20T00:42:17.774Z,3.05
2023-04-20T00:44:19.253Z,3.03
2023-04-20T00:46:21.030Z,2.88
2023-04-20T00:48:22.613Z,3.08
2023-04-20T00:50:24.093Z,3.60
2023-04-20T00:52:25.740Z,2.47
2023-04-20T00:54:45.638Z,2.80
2023-04-20T00:56:50.762Z,2.70
2023-04-20T00:58:55.003Z,3.03
2023-04-20T01:03:03.975Z,2.38
2023-04-20T01:05:06.079Z,3.47
2023-04-20T01:07:07.662Z,2.90
2023-04-20T01:09:27.584Z,3.13
2023-04-20T01:11:28.989Z,2.45
2023-04-20T01:13:30.496Z,3.15
2023-04-20T01:15:32.027Z,2.75
2023-04-20T01:17:34.854Z,2.90
2023-04-20T01:19:39.303Z,3.38
2023-04-20T01:21:43.408Z,3.10
2023-04-20T01:23:45.371Z,2.28
2023-04-20T01:25:46.808Z,2.65
2023-04-20T01:27:51.230Z,3.22
2023-04-20T01:29:55.568Z,4.28
2023-04-20T01:31:59.851Z,2.70
2023-04-20T01:34:01.328Z,2.60
2023-04-20T01:38:09.645Z,2.50
2023-04-20T01:40:12.133Z,3.25
2023-04-20T01:42:13.709Z,2.47
2023-04-20T01:46:44.857Z,3.78
2023-04-20T01:49:09.022Z,2.65
2023-04-20T01:51:33.967Z,4.18
2023-04-20T01:53:50.160Z,3.63
2023-04-20T01:56:20.254Z,3.30
2023-04-20T01:59:01.948Z,3.70
2023-04-20T02:01:53.426Z,2.65
2023-04-20T02:04:18.955Z,3.50
2023-04-20T02:06:42.811Z,3.53
2023-04-20T02:08:50.977Z,3.25
2023-04-20T02:11:09.940Z,3.17
2023-04-20T02:13:37.365Z,3.58
2023-04-20T02:16:12.842Z,7.68
2023-04-20T02:18:54.059Z,3.92
2023-04-20T02:20:58.344Z,3.25
2023-04-20T02:25:04.964Z,5.15
2023-04-20T02:27:09.793Z,3.10
2023-04-20T02:29:11.329Z,2.45
2023-04-20T02:31:15.791Z,4.03
2023-04-20T02:33:17.544Z,3.10
2023-04-20T02:35:21.898Z,2.28
2023-04-20T02:37:23.296Z,3.08
2023-04-20T02:39:24.929Z,3.00
2023-04-20T02:41:29.452Z,2.90
2023-04-20T02:43:49.455Z,4.50
2023-04-20T02:45:53.650Z,2.83
2023-04-20T02:48:14.112Z,2.67
2023-04-20T02:50:18.475Z,3.67
2023-04-20T02:52:22.817Z,3.67
2023-04-20T02:54:42.818Z,2.75
2023-04-20T02:56:46.816Z,3.92
2023-04-20T02:58:52.183Z,3.53
2023-04-20T03:01:00.963Z,5.15
2023-04-20T03:03:03.178Z,3.50
2023-04-20T03:05:04.884Z,4.75
2023-04-20T03:07:06.843Z,3.33
2023-04-20T03:09:09.526Z,3.15
2023-04-20T03:11:11.152Z,3.40
2023-04-20T03:13:12.556Z,3.47
2023-04-20T03:15:15.592Z,3.13
2023-04-20T03:17:35.910Z,3.60
2023-04-20T03:19:40.745Z,4.05
2023-04-20T03:22:00.791Z,5.53
2023-04-20T03:24:02.299Z,3.38
2023-04-20T03:26:22.344Z,3.78
2023-04-20T03:28:24.006Z,4.10
2023-04-20T03:30:28.296Z,3.33
2023-04-20T03:32:32.086Z,3.22
2023-04-20T03:34:37.124Z,2.80
2023-04-20T03:36:41.376Z,4.10
2023-04-20T03:38:45.702Z,3.65
2023-04-20T03:42:51.309Z,3.28
2023-04-20T03:44:55.366Z,2.63
2023-04-20T03:46:59.608Z,4.03
2023-04-20T03:49:01.101Z,3.22
2023-04-20T03:51:02.620Z,4.15
2023-04-20T03:53:22.823Z,4.18
2023-04-20T03:55:27.097Z,2.92
2023-04-20T03:57:47.216Z,4.07
2023-04-20T03:59:48.678Z,5.03
2023-04-20T04:01:52.658Z,3.88
2023-04-20T04:04:12.833Z,4.22
2023-04-20T04:06:14.592Z,4.43
2023-04-20T04:08:16.167Z,4.43
2023-04-20T04:10:20.812Z,4.03
2023-04-20T04:12:22.413Z,4.47
2023-04-20T04:14:26.887Z,4.22
2023-04-20T04:16:31.886Z,4.75
2023-04-20T04:18:33.409Z,4.13
2023-04-20T04:20:37.419Z,4.05
2023-04-20T04:22:38.899Z,4.28
2023-04-20T04:24:41.744Z,5.22
2023-04-20T04:27:05.331Z,5.95
2023-04-20T04:29:07.225Z,5.35
2023-04-20T04:31:12.328Z,5.45
2023-04-20T04:33:19.015Z,4.57
2023-04-20T04:35:40.586Z,4.43
2023-04-20T04:37:42.365Z,4.87
2023-04-20T04:39:43.814Z,5.05
2023-04-20T04:41:47.920Z,5.13
2023-04-20T04:43:52.428Z,5.43
2023-04-20T04:48:00.099Z,4.82
2023-04-20T04:50:05.857Z,5.63
2023-04-20T04:52:09.861Z,6.13
2023-04-20T04:56:16.967Z,4.43
2023-04-20T04:58:20.889Z,5.68
2023-04-20T05:00:26.304Z,4.90
2023-04-20T05:02:30.462Z,5.10
2023-04-20T05:04:37.293Z,5.72
2023-04-20T05:06:59.322Z,6.00
2023-04-20T05:09:06.717Z,5.22
2023-04-20T05:11:13.808Z,5.55
2023-04-20T05:13:20.064Z,5.75
2023-04-20T05:15:23.959Z,5.75
2023-04-20T05:17:46.200Z,5.38
2023-04-20T05:19:52.870Z,6.68
2023-04-20T05:21:59.193Z,6.95
2023-04-20T05:24:02.740Z,6.38
2023-04-20T05:26:04.678Z,7.47
2023-04-20T05:28:06.217Z,7.75
2023-04-20T05:30:19.630Z,7.47
2023-04-20T05:32:25.864Z,8.48
2023-04-20T05:34:27.332Z,8.25
2023-04-20T05:36:29.550Z,9.63
2023-04-20T05:38:49.809Z,8.38
2023-04-20T05:42:55.535Z,7.65
2023-04-20T05:44:56.895Z,9.00
2023-04-20T05:49:02.526Z,9.18
2023-04-20T05:51:22.661Z,9.20
2023-04-20T05:55:28.490Z,9.10
2023-04-20T05:57:30.758Z,8.32
2023-04-20T05:59:50.879Z,7.22
2023-04-20T06:01:55.226Z,7.47
2023-04-20T06:03:56.914Z,8.25
2023-04-20T06:06:01.260Z,8.75
2023-04-20T06:10:09.595Z,6.82
2023-04-20T06:12:11.218Z,9.48
2023-04-20T06:14:15.931Z,7.75
2023-04-20T06:16:20.644Z,7.03
2023-04-20T06:18:22.200Z,9.18
2023-04-20T06:20:26.563Z,7.88
2023-04-20T06:22:30.959Z,7.53
2023-04-20T06:24:33.090Z,7.93
2023-04-20T06:26:34.535Z,6.95
2023-04-20T06:28:36.705Z,7.68
2023-04-20T06:30:40.769Z,7.18
2023-04-20T06:32:42.278Z,7.60
2023-04-20T06:35:04.141Z,7.18
2023-04-20T06:37:08.205Z,9.40
2023-04-20T06:39:11.342Z,7.03
2023-04-20T06:41:12.815Z,6.73
2023-04-20T06:43:14.225Z,6.88
2023-04-20T06:45:15.724Z,6.22
2023-04-20T06:47:20.790Z,6.95
2023-04-20T06:49:22.314Z,6.75
2023-04-20T06:51:29.522Z,5.90
2023-04-20T06:53:31.069Z,5.60
2023-04-20T06:55:32.464Z,5.72
2023-04-20T06:59:39.963Z,5.70
2023-04-20T07:01:41.532Z,5.45
2023-04-20T07:03:43.998Z,5.50
2023-04-20T07:05:45.686Z,6.18
2023-04-20T07:07:47.339Z,6.35
2023-04-20T07:09:49.434Z,4.60
2023-04-20T07:11:53.793Z,5.50
2023-04-20T07:13:55.410Z,4.68
2023-04-20T07:15:57.282Z,5.30
2023-04-20T07:18:01.528Z,5.63
2023-04-20T07:20:07.313Z,4.97
2023-04-20T07:22:11.773Z,6.03
2023-04-20T07:24:13.278Z,5.30
2023-04-20T07:26:17.324Z,5.53
2023-04-20T07:28:21.667Z,5.05
2023-04-20T07:30:25.852Z,5.45
2023-04-20T07:32:27.494Z,5.35
2023-04-20T07:34:28.953Z,4.53
2023-04-20T07:36:30.389Z,4.55
2023-04-20T07:38:34.518Z,4.82
2023-04-20T07:40:39.025Z,4.45
2023-04-20T07:42:40.521Z,4.90
2023-04-20T07:44:42.077Z,4.70
2023-04-20T07:46:43.521Z,4.38
2023-04-20T07:49:03.579Z,4.72
2023-04-20T07:51:23.677Z,5.22
2023-04-20T07:53:29.184Z,5.18
2023-04-20T07:55:36.975Z,4.57
2023-04-20T07:57:41.363Z,4.40
2023-04-20T07:59:52.322Z,4.95
2023-04-20T08:02:06.028Z,4.95
2023-04-20T08:04:17.779Z,4.78
2023-04-20T08:06:27.763Z,5.15
2023-04-20T08:08:34.116Z,4.15
2023-04-20T08:10:46.715Z,4.30
2023-04-20T08:12:55.356Z,4.20
2023-04-20T08:15:02.966Z,4.28
2023-04-20T08:17:10.412Z,4.03
2023-04-20T08:21:35.458Z,5.78
2023-04-20T08:23:44.238Z,4.95
2023-04-20T08:25:48.101Z,4.13
2023-04-20T08:27:50.822Z,4.15
2023-04-20T08:30:01.400Z,4.00
2023-04-20T08:32:14.388Z,3.85
2023-04-20T08:34:17.176Z,4.63
2023-04-20T08:36:18.801Z,3.53
2023-04-20T08:38:32.931Z,3.13
2023-04-20T08:40:36.639Z,3.72
2023-04-20T08:42:41.143Z,3.67
2023-04-20T08:44:43.027Z,3.72
2023-04-20T08:46:46.712Z,3.20
2023-04-20T08:48:48.706Z,3.55
2023-04-20T08:50:53.265Z,3.55
2023-04-20T08:52:57.750Z,3.35
2023-04-20T08:55:01.857Z,4.10
2023-04-20T08:57:05.996Z,3.78
2023-04-20T08:59:10.556Z,3.33
2023-04-20T09:01:17.637Z,3.17
2023-04-20T09:03:34.310Z,3.22
2023-04-20T09:05:35.981Z,3.55
2023-04-20T09:07:37.567Z,3.45
2023-04-20T09:09:39.072Z,3.42
2023-04-20T09:11:40.622Z,3.85
2023-04-20T09:13:42.144Z,3.50
2023-04-20T09:16:12.457Z,3.42
2023-04-20T09:18:14.558Z,3.05
2023-04-20T09:20:16.400Z,3.67
2023-04-20T09:22:29.981Z,3.78
2023-04-20T09:24:50.686Z,3.65
2023-04-20T09:26:52.138Z,3.28
2023-04-20T09:28:53.773Z,2.67
2023-04-20T09:30:57.995Z,2.63
2023-04-20T09:33:01.389Z,3.22
2023-04-20T09:35:02.925Z,2.72
2023-04-20T09:37:23.258Z,2.33
2023-04-20T09:39:28.172Z,3.03
2023-04-20T09:41:49.373Z,2.10
2023-04-20T09:43:51.156Z,2.15
2023-04-20T09:45:56.510Z,4.63
2023-04-20T09:47:58.542Z,3.67
2023-04-20T09:50:10.284Z,2.67
2023-04-20T09:52:27.479Z,2.65
2023-04-20T09:54:31.975Z,3.63
2023-04-20T09:56:52.443Z,3.60
2023-04-20T09:58:56.982Z,3.70
2023-04-20T10:01:01.924Z,2.60
2023-04-20T10:03:09.093Z,3.10
2023-04-20T10:05:13.690Z,3.08
2023-04-20T10:07:23.697Z,2.08
2023-04-20T10:09:27.928Z,3.05
2023-04-20T10:11:37.102Z,3.40
2023-04-20T10:13:46.560Z,3.33
2023-04-20T10:16:16.985Z,2.72
2023-04-20T10:18:23.834Z,3.35
2023-04-20T10:20:28.765Z,3.10
2023-04-20T10:22:33.541Z,2.20
2023-04-20T10:24:37.893Z,2.47
2023-04-20T10:26:40.495Z,3.92
2023-04-20T10:28:45.090Z,2.83
2023-04-20T10:30:50.803Z,2.45
2023-04-20T10:33:07.791Z,999.40
2023-04-20T10:35:28.140Z,972.40
2023-04-20T10:37:29.780Z,975.55
2023-04-20T10:39:34.575Z,976.42
2023-04-20T10:41:38.835Z,986.28
2023-04-20T10:43:43.589Z,967.63
2023-04-20T10:45:48.665Z,967.65
2023-04-20T10:47:50.165Z,958.25
2023-04-20T10:49:54.509Z,979.75
2023-04-20T10:51:56.065Z,969.22
2023-04-20T10:54:18.173Z,958.97
2023-04-20T10:56:22.573Z,948.33
2023-04-20T10:58:26.838Z,930.97
2023-04-20T11:00:28.856Z,911.10
2023-04-20T11:02:35.996Z,911.90
2023-04-20T11:04:46.884Z,909.00
2023-04-20T11:09:22.580Z,895.63
2023-04-20T11:11:28.853Z,1.85
2023-04-20T11:13:38.461Z,2.13
2023-04-20T11:15:46.046Z,2.35
2023-04-20T11:17:49.778Z,2.42
2023-04-20T11:19:52.332Z,3.17
2023-04-20T11:22:03.694Z,2.08
2023-04-20T11:24:20.662Z,2.58
2023-04-20T11:26:36.007Z,1.80
2023-04-20T11:28:58.218Z,2.15
2023-04-20T11:31:19.708Z,2.00
2023-04-20T11:33:34.486Z,2.42
2023-04-20T11:35:44.116Z,2.10
2023-04-20T11:37:55.285Z,2.35
2023-04-20T11:40:01.606Z,2.35
2023-04-20T11:42:03.422Z,1.88
2023-04-20T11:44:07.363Z,1.98
2023-04-20T11:46:20.993Z,2.55
2023-04-20T11:48:22.675Z,1.75
2023-04-20T11:50:25.013Z,1.50
2023-04-20T11:52:32.641Z,1.60
2023-04-20T11:54:35.111Z,2.15
2023-04-20T11:56:37.323Z,1.63
2023-04-20T11:58:41.532Z,1.90
2023-04-20T12:00:42.976Z,1.67
2023-04-20T12:02:47.520Z,2.13
2023-04-20T12:04:51.698Z,1.63
2023-04-20T12:06:56.314Z,1.85
2023-04-20T12:08:58.038Z,1.42
2023-04-20T12:11:02.223Z,1.58
2023-04-20T12:13:22.413Z,2.00
2023-04-20T12:15:24.592Z,2.17
2023-04-20T12:17:29.128Z,2.08
2023-04-20T12:19:33.596Z,2.38
2023-04-20T12:21:37.749Z,1.83
2023-04-20T12:23:43.862Z,1.40
2023-04-20T12:25:49.394Z,1.85
2023-04-20T12:27:50.902Z,1.75
2023-04-20T12:29:55.494Z,1.38
2023-04-20T12:32:00.137Z,1.58
2023-04-20T12:34:02.247Z,9.68
2023-04-20T12:36:06.739Z,1.70
2023-04-20T12:38:12.787Z,1.45
2023-04-20T12:40:18.115Z,1.45
2023-04-20T12:42:22.192Z,1.67
2023-04-20T12:44:23.644Z,2.55
2023-04-20T12:46:27.946Z,1.67
2023-04-20T12:48:32.216Z,1.40
2023-04-20T12:50:36.464Z,1.55
2023-04-20T12:52:40.839Z,1.65
2023-04-20T12:55:01.732Z,1.92
2023-04-20T12:57:03.632Z,1.27
2023-04-20T12:59:08.467Z,1.92
2023-04-20T13:01:12.609Z,2.13
2023-04-20T13:03:14.301Z,1.58
2023-04-20T13:05:16.395Z,1.90
2023-04-20T13:07:20.818Z,1.77
2023-04-20T13:09:27.087Z,1.55
2023-04-20T13:11:34.501Z,2.03
2023-04-20T13:13:35.909Z,2.30
2023-04-20T13:15:56.159Z,1.80
2023-04-20T13:18:00.903Z,1.52
2023-04-20T13:20:02.592Z,1.58
2023-04-20T13:22:06.913Z,2.00
2023-04-20T13:24:08.466Z,2.60
2023-04-20T13:26:12.864Z,2.10
2023-04-20T13:28:33.060Z,2.97
2023-04-20T13:30:38.055Z,2.38
2023-04-20T13:32:58.595Z,2.63
2023-04-20T13:35:02.993Z,2.47
2023-04-20T13:37:04.544Z,2.47
2023-04-20T13:39:10.200Z,1.95
2023-04-20T13:41:15.293Z,2.30
2023-04-20T13:43:35.132Z,2.40
2023-04-20T13:45:36.623Z,2.42
2023-04-20T13:47:40.938Z,2.63
2023-04-20T13:49:42.491Z,2.10
2023-04-20T13:51:43.988Z,1.77
2023-04-20T13:53:48.578Z,2.25
2023-04-20T13:55:50.032Z,2.13
2023-04-20T13:57:51.474Z,3.20
2023-04-20T13:59:55.860Z,1.95
2023-04-20T14:02:00.004Z,1.65
2023-04-20T14:04:01.670Z,2.45
2023-04-20T14:06:03.714Z,2.55
2023-04-20T14:08:07.923Z,2.15
2023-04-20T14:10:36.833Z,2.20
2023-04-20T14:12:49.317Z,1.85
2023-04-20T14:14:57.687Z,2.50
2023-04-20T14:17:00.770Z,2.00
2023-04-20T14:19:08.054Z,3.17
2023-04-20T14:21:15.899Z,2.72
2023-04-20T14:23:24.992Z,2.63
2023-04-20T14:25:39.082Z,2.15
2023-04-20T14:27:43.598Z,2.25
2023-04-20T14:29:54.955Z,2.17
2023-04-20T14:32:03.997Z,2.35
2023-04-20T14:34:12.546Z,2.28
2023-04-20T14:36:17.118Z,1.90
2023-04-20T14:38:27.603Z,2.75
2023-04-20T14:40:35.519Z,3.22
2023-04-20T14:42:44.227Z,2.40
2023-04-20T14:44:54.239Z,2.63
2023-04-20T14:47:15.157Z,2.63
2023-04-20T14:49:16.733Z,2.00
2023-04-20T14:51:20.032Z,2.05
2023-04-20T14:53:24.361Z,1.85
2023-04-20T14:55:25.979Z,2.33
2023-04-20T14:57:27.904Z,2.08
2023-04-20T14:59:33.820Z,1.77
2023-04-20T15:02:02.433Z,2.10
2023-04-20T15:04:05.071Z,1.95
2023-04-20T15:06:06.895Z,1.80
2023-04-20T15:08:11.056Z,2.28
2023-04-20T15:10:15.118Z,1.27
2023-04-20T15:12:20.924Z,1.50
2023-04-20T15:14:22.745Z,1.92
2023-04-20T15:16:27.027Z,1.20
2023-04-20T15:18:28.544Z,1.73
2023-04-20T15:20:30.020Z,1.65
2023-04-20T15:22:34.548Z,1.60
2023-04-20T15:24:54.530Z,1.98
2023-04-20T15:26:58.566Z,2.20
2023-04-20T15:29:00.192Z,1.77
2023-04-20T15:31:01.884Z,1.48
2023-04-20T15:33:04.708Z,1.60
2023-04-20T15:35:07.080Z,1.35
2023-04-20T15:37:08.649Z,1.40
2023-04-20T15:39:13.138Z,1.00
2023-04-20T15:41:16.332Z,1.23
2023-04-20T15:43:17.901Z,1.20
2023-04-20T15:45:22.978Z,1.33
2023-04-20T15:47:24.477Z,0.93
2023-04-20T15:49:28.787Z,2.40
2023-04-20T15:51:30.261Z,1.10
2023-04-20T15:53:35.335Z,1.15
2023-04-20T15:55:39.603Z,0.95
2023-04-20T15:57:42.636Z,0.90
2023-04-20T15:59:48.091Z,1.55
2023-04-20T16:01:53.333Z,0.93
2023-04-20T16:03:55.477Z,1.15
2023-04-20T16:05:57.083Z,1.30
2023-04-20T16:08:01.391Z,1.00
2023-04-20T16:10:06.849Z,1.10
2023-04-20T16:12:08.544Z,0.97
2023-04-20T16:14:28.812Z,0.93
2023-04-20T16:16:33.556Z,0.80
2023-04-20T16:18:35.072Z,0.88
2023-04-20T16:20:36.617Z,0.90
2023-04-20T16:22:41.027Z,0.95
2023-04-20T16:24:45.485Z,0.68
2023-04-20T16:26:49.705Z,0.65
2023-04-20T16:30:55.158Z,0.60
2023-04-20T16:33:00.274Z,0.57
2023-04-20T16:35:04.624Z,0.60
2023-04-20T16:37:06.503Z,0.82
2023-04-20T16:39:10.164Z,0.60
2023-04-20T16:41:14.575Z,0.80
2023-04-20T16:43:16.228Z,0.93
2023-04-20T16:45:20.514Z,0.57
2023-04-20T16:47:24.866Z,0.52
2023-04-20T16:49:29.241Z,0.60
2023-04-20T16:51:33.662Z,1.38
2023-04-20T16:53:37.895Z,0.63
2023-04-20T16:55:42.478Z,0.82
2023-04-20T16:57:46.702Z,1.85
2023-04-20T16:59:51.112Z,0.70
2023-04-20T17:02:11.419Z,0.77
2023-04-20T17:04:13.188Z,0.68
2023-04-20T17:06:17.695Z,0.80
2023-04-20T17:08:22.160Z,0.75
2023-04-20T17:10:26.261Z,0.73
2023-04-20T17:12:28.018Z,0.70
2023-04-20T17:14:35.768Z,2.45
2023-04-20T17:16:51.091Z,0.80
2023-04-20T17:19:03.924Z,0.90
2023-04-20T17:21:15.141Z,1.23
2023-04-20T17:23:30.931Z,0.75
2023-04-20T17:25:35.962Z,1.35
2023-04-20T17:27:47.608Z,1.10
2023-04-20T17:30:02.208Z,1.55
2023-04-20T17:32:12.789Z,0.98
2023-04-20T17:34:25.630Z,1.60
2023-04-20T17:36:36.250Z,1.10
2023-04-20T17:38:42.714Z,1.17
2023-04-20T17:40:49.705Z,1.25
2023-04-20T17:43:03.449Z,1.27
2023-04-20T17:45:10.375Z,1.33
2023-04-20T17:47:16.395Z,1.10
2023-04-20T17:49:28.313Z,1.42
2023-04-20T17:51:33.416Z,1.23
2023-04-20T17:53:37.512Z,1.65
2023-04-20T17:55:39.468Z,1.50
2023-04-20T17:57:43.697Z,1.48
2023-04-20T17:59:45.262Z,2.17
2023-04-20T18:01:49.807Z,1.65
2023-04-20T18:03:51.946Z,1.75
2023-04-20T18:06:12.117Z,1.30
2023-04-20T18:08:17.715Z,2.08
2023-04-20T18:10:19.706Z,2.58
2023-04-20T18:12:21.327Z,2.45
2023-04-20T18:14:25.534Z,1.90
2023-04-20T18:16:29.762Z,1.70
2023-04-20T18:18:31.196Z,1.85
2023-04-20T18:20:32.792Z,2.08
2023-04-20T18:22:52.996Z,2.85
2023-04-20T18:25:13.093Z,4.90
2023-04-20T18:27:17.213Z,5.63
2023-04-20T18:29:22.023Z,4.35
2023-04-20T18:31:23.641Z,3.42
2023-04-20T18:33:27.994Z,4.03
2023-04-20T18:35:35.714Z,2.50
2023-04-20T18:37:37.438Z,2.72
2023-04-20T18:39:57.952Z,2.25
2023-04-20T18:42:00.114Z,2.58
2023-04-20T18:44:01.953Z,2.17
2023-04-20T18:46:21.885Z,3.08
2023-04-20T18:48:26.136Z,2.78
2023-04-20T18:50:30.503Z,2.88
2023-04-20T18:52:50.462Z,3.67
2023-04-20T18:54:52.700Z,3.50
2023-04-20T18:56:57.113Z,3.60
2023-04-20T18:59:00.313Z,3.22
2023-04-20T19:01:20.615Z,4.22
2023-04-20T19:03:22.218Z,4.35
2023-04-20T19:05:23.857Z,4.25
2023-04-20T19:07:25.471Z,3.63
2023-04-20T19:09:27.056Z,2.60
2023-04-20T19:11:31.352Z,2.75
2023-04-20T19:13:51.741Z,2.45
2023-04-20T19:16:12.157Z,1.35
2023-04-20T19:18:20.301Z,2.47
2023-04-20T19:20:25.063Z,2.05
2023-04-20T19:22:29.451Z,1.88
2023-04-20T19:24:32.130Z,1.88
2023-04-20T19:26:33.802Z,2.05
2023-04-20T19:28:41.200Z,2.50
2023-04-20T19:30:42.824Z,2.22
2023-04-20T19:32:47.186Z,2.60
2023-04-20T19:34:48.671Z,3.53
2023-04-20T19:37:08.557Z,2.67
2023-04-20T19:39:12.813Z,2.90
2023-04-20T19:41:17.116Z,56.42
2023-04-20T19:43:37.608Z,148.57
2023-04-20T19:45:41.665Z,146.43
2023-04-20T19:47:46.324Z,18.92
2023-04-20T19:49:50.886Z,1.88
2023-04-20T19:51:55.167Z,2.28
2023-04-20T19:53:58.558Z,2.67
2023-04-20T19:56:00.321Z,2.00
2023-04-20T19:58:01.897Z,1.88
2023-04-20T20:02:07.582Z,1.60
2023-04-20T20:04:12.278Z,1.90
2023-04-20T20:06:16.518Z,2.50
2023-04-20T20:08:18.020Z,2.05
2023-04-20T20:12:26.312Z,1.88
2023-04-20T20:14:34.123Z,1.67
2023-04-20T20:16:39.361Z,1.85
2023-04-20T20:18:43.998Z,2.00
2023-04-20T20:20:51.077Z,1.83
2023-04-20T20:22:56.769Z,2.28
2023-04-20T20:25:04.082Z,2.38
2023-04-20T20:27:16.265Z,1.70
2023-04-20T20:29:21.698Z,1.80
2023-04-20T20:31:30.828Z,2.10
2023-04-20T20:33:39.162Z,1.33
2023-04-20T20:35:45.295Z,2.20
2023-04-20T20:37:50.484Z,1.92
2023-04-20T20:39:56.209Z,2.10
2023-04-20T20:42:00.722Z,2.13
2023-04-20T20:44:08.045Z,1.77
2023-04-20T20:46:16.620Z,1.83
2023-04-20T20:48:22.532Z,1.88
2023-04-20T20:50:30.939Z,1.98
2023-04-20T20:52:40.011Z,2.83
2023-04-20T20:54:47.716Z,4.13
2023-04-20T20:56:52.765Z,2.67
2023-04-20T20:58:57.808Z,3.15
2023-04-20T21:00:59.249Z,2.45
2023-04-20T21:03:04.191Z,2.95
2023-04-20T21:05:24.497Z,3.20
2023-04-20T21:07:26.201Z,3.15
2023-04-20T21:09:46.328Z,2.90
2023-04-20T21:11:50.686Z,3.17
2023-04-20T21:14:01.414Z,3.33
2023-04-20T21:16:05.903Z,3.22
2023-04-20T21:18:10.238Z,4.65
2023-04-20T21:20:11.981Z,4.90
2023-04-20T21:22:16.642Z,4.28
2023-04-20T21:24:19.149Z,4.53
2023-04-20T21:26:20.675Z,4.97
2023-04-20T21:28:22.147Z,5.00
2023-04-20T21:30:23.594Z,4.35
2023-04-20T21:32:27.969Z,4.40
2023-04-20T21:34:29.577Z,4.53
2023-04-20T21:36:34.077Z,5.63
2023-04-20T21:38:35.675Z,4.72
2023-04-20T21:42:41.041Z,5.03
2023-04-20T21:44:45.341Z,5.45
2023-04-20T21:46:49.627Z,5.75
2023-04-20T21:48:54.010Z,5.18
2023-04-20T21:50:55.584Z,5.10
2023-04-20T21:52:57.042Z,5.68
2023-04-20T21:54:58.516Z,6.15
2023-04-20T21:56:59.997Z,5.32
2023-04-20T21:59:01.682Z,5.75
2023-04-20T22:01:05.801Z,5.53
2023-04-20T22:03:10.403Z,5.97
2023-04-20T22:05:12.305Z,6.18
2023-04-20T22:07:17.663Z,5.43
2023-04-20T22:09:22.237Z,6.65
2023-04-20T22:11:26.795Z,6.50
2023-04-20T22:15:35.211Z,5.55
2023-04-20T22:17:37.887Z,6.35
2023-04-20T22:19:42.230Z,6.20
2023-04-20T22:21:43.816Z,6.80
2023-04-20T22:23:47.974Z,6.90
2023-04-20T22:25:49.665Z,7.13
2023-04-20T22:27:53.734Z,7.13
2023-04-20T22:29:55.234Z,6.82
2023-04-20T22:32:15.451Z,6.72
2023-04-20T22:34:16.872Z,8.70
2023-04-20T22:36:18.524Z,6.68
2023-04-20T22:38:22.542Z,7.45
2023-04-20T22:40:23.996Z,6.72
2023-04-20T22:42:25.588Z,7.97
2023-04-20T22:44:29.976Z,7.32
2023-04-20T22:46:34.298Z,7.80
2023-04-20T22:48:38.618Z,8.35
2023-04-20T22:50:40.575Z,7.03
2023-04-20T22:53:00.666Z,7.50
2023-04-20T22:55:02.111Z,7.28
2023-04-20T22:57:03.816Z,7.40
2023-04-20T22:59:05.234Z,8.05
2023-04-20T23:01:09.683Z,8.05
2023-04-20T23:03:11.303Z,8.43
2023-04-20T23:05:12.918Z,8.68
2023-04-20T23:07:14.400Z,7.90
2023-04-20T23:11:28.638Z,8.07
2023-04-20T23:13:30.079Z,8.52
2023-04-20T23:15:31.499Z,9.07
2023-04-20T23:19:40.348Z,8.10
2023-04-20T23:21:42.102Z,8.93
2023-04-20T23:23:43.510Z,9.00
2023-04-20T23:25:47.839Z,8.68
2023-04-20T23:27:53.533Z,9.07
2023-04-20T23:29:58.986Z,8.60
2023-04-20T23:32:03.926Z,8.90
2023-04-20T23:34:05.703Z,9.20
2023-04-20T23:36:07.378Z,9.63
2023-04-20T23:38:08.895Z,11.57
2023-04-20T23:40:13.425Z,9.27
2023-04-20T23:42:14.954Z,9.60
2023-04-20T23:44:18.994Z,9.57
2023-04-20T23:46:39.667Z,8.55
2023-04-20T23:48:41.173Z,9.50
2023-04-20T23:50:42.670Z,10.07
2023-04-20T23:52:47.130Z,9.77
2023-04-20T23:54:51.560Z,9.75
2023-04-20T23:56:55.938Z,9.27
2023-04-20T23:58:58.696Z,9.82
